sensor_id;sensor_type;location;lat;lon;timestamp;pressure;altitude;pressure_sealevel;temperature;humidity
63190;BME280;49286;44.460;26.114;2024-03-02T00:00:21;59860.63;;;-146.26;100.00
63190;BME280;49286;44.460;26.114;2024-03-02T00:02:49;59860.63;;;-146.26;100.00
63190;BME280;49286;44.460;26.114;2024-03-02T00:05:18;59860.63;;;-146.26;100.00
63190;BME280;49286;44.460;26.114;2024-03-02T00:07:47;59860.63;;;-146.26;100.00
63190;BME280;49286;44.460;26.114;2024-03-02T00:10:20;59860.63;;;-146.26;100.00
63190;BME280;49286;44.460;26.114;2024-03-02T00:12:50;59860.63;;;-146.26;100.00
63190;BME280;49286;44.460;26.114;2024-03-02T00:18:18;59860.63;;;-146.26;100.00
63190;BME280;49286;44.460;26.114;2024-03-02T00:20:44;59860.63;;;-146.26;100.00
63190;BME280;49286;44.460;26.114;2024-03-02T00:23:15;59860.63;;;-146.26;100.00
63190;BME280;49286;44.460;26.114;2024-03-02T00:25:53;59860.63;;;-146.26;100.00
63190;BME280;49286;44.460;26.114;2024-03-02T00:30:59;59860.63;;;-146.26;100.00
63190;BME280;49286;44.460;26.114;2024-03-02T00:33:30;59860.63;;;-146.26;100.00
63190;BME280;49286;44.460;26.114;2024-03-02T00:35:57;59860.63;;;-146.26;100.00
63190;BME280;49286;44.460;26.114;2024-03-02T00:38:23;59860.63;;;-146.26;100.00
63190;BME280;49286;44.460;26.114;2024-03-02T00:40:48;59860.63;;;-146.26;100.00
63190;BME280;49286;44.460;26.114;2024-03-02T00:46:08;59860.63;;;-146.26;100.00
63190;BME280;49286;44.460;26.114;2024-03-02T00:48:33;59860.63;;;-146.26;100.00
63190;BME280;49286;44.460;26.114;2024-03-02T00:51:05;59860.63;;;-146.26;100.00
63190;BME280;49286;44.460;26.114;2024-03-02T00:53:32;59860.63;;;-146.26;100.00
63190;BME280;49286;44.460;26.114;2024-03-02T00:55:58;59860.63;;;-146.26;100.00
63190;BME280;49286;44.460;26.114;2024-03-02T00:58:25;59860.63;;;-146.26;100.00
63190;BME280;49286;44.460;26.114;2024-03-02T01:00:50;59860.63;;;-146.26;100.00
63190;BME280;49286;44.460;26.114;2024-03-02T01:03:16;59860.63;;;-146.26;100.00
63190;BME280;49286;44.460;26.114;2024-03-02T01:05:42;59860.63;;;-146.26;100.00
63190;BME280;49286;44.460;26.114;2024-03-02T01:08:09;59860.63;;;-146.26;100.00
63190;BME280;49286;44.460;26.114;2024-03-02T01:10:34;59860.63;;;-146.26;100.00
63190;BME280;49286;44.460;26.114;2024-03-02T01:13:00;59860.63;;;-146.26;100.00
63190;BME280;49286;44.460;26.114;2024-03-02T01:15:26;59860.63;;;-146.26;100.00
63190;BME280;49286;44.460;26.114;2024-03-02T01:17:51;59860.63;;;-146.26;100.00
63190;BME280;49286;44.460;26.114;2024-03-02T01:20:17;59860.63;;;-146.26;100.00
63190;BME280;49286;44.460;26.114;2024-03-02T01:22:42;59860.63;;;-146.26;100.00
63190;BME280;49286;44.460;26.114;2024-03-02T01:25:08;59860.63;;;-146.26;100.00
63190;BME280;49286;44.460;26.114;2024-03-02T01:27:34;59860.63;;;-146.26;100.00
63190;BME280;49286;44.460;26.114;2024-03-02T01:30:00;59860.63;;;-146.26;100.00
63190;BME280;49286;44.460;26.114;2024-03-02T01:32:25;59860.63;;;-146.26;100.00
63190;BME280;49286;44.460;26.114;2024-03-02T01:34:51;59860.63;;;-146.26;100.00
63190;BME280;49286;44.460;26.114;2024-03-02T01:37:16;59860.63;;;-146.26;100.00
63190;BME280;49286;44.460;26.114;2024-03-02T01:39:42;59860.63;;;-146.26;100.00
63190;BME280;49286;44.460;26.114;2024-03-02T01:42:09;59860.63;;;-146.26;100.00
63190;BME280;49286;44.460;26.114;2024-03-02T01:44:36;59860.63;;;-146.26;100.00
63190;BME280;49286;44.460;26.114;2024-03-02T01:47:02;59860.63;;;-146.26;100.00
63190;BME280;49286;44.460;26.114;2024-03-02T01:49:27;59860.63;;;-146.26;100.00
63190;BME280;49286;44.460;26.114;2024-03-02T01:51:53;59860.63;;;-146.26;100.00
63190;BME280;49286;44.460;26.114;2024-03-02T01:54:18;59860.63;;;-146.26;100.00
63190;BME280;49286;44.460;26.114;2024-03-02T01:56:44;59860.63;;;-146.26;100.00
63190;BME280;49286;44.460;26.114;2024-03-02T01:59:10;59860.63;;;-146.26;100.00
63190;BME280;49286;44.460;26.114;2024-03-02T02:01:36;59860.63;;;-146.26;100.00
63190;BME280;49286;44.460;26.114;2024-03-02T02:04:01;59860.63;;;-146.26;100.00
63190;BME280;49286;44.460;26.114;2024-03-02T02:06:27;59860.63;;;-146.26;100.00
63190;BME280;49286;44.460;26.114;2024-03-02T02:08:53;59860.63;;;-146.26;100.00
63190;BME280;49286;44.460;26.114;2024-03-02T02:11:18;59860.63;;;-146.26;100.00
63190;BME280;49286;44.460;26.114;2024-03-02T02:13:44;59860.63;;;-146.26;100.00
63190;BME280;49286;44.460;26.114;2024-03-02T02:16:09;59860.63;;;-146.26;100.00
63190;BME280;49286;44.460;26.114;2024-03-02T02:18:35;59860.63;;;-146.26;100.00
63190;BME280;49286;44.460;26.114;2024-03-02T02:21:03;59860.63;;;-146.26;100.00
63190;BME280;49286;44.460;26.114;2024-03-02T02:23:29;59860.63;;;-146.26;100.00
63190;BME280;49286;44.460;26.114;2024-03-02T02:25:54;59860.63;;;-146.26;100.00
63190;BME280;49286;44.460;26.114;2024-03-02T02:28:20;59860.63;;;-146.26;100.00
63190;BME280;49286;44.460;26.114;2024-03-02T02:30:46;59860.63;;;-146.26;100.00
63190;BME280;49286;44.460;26.114;2024-03-02T02:33:11;59860.63;;;-146.26;100.00
63190;BME280;49286;44.460;26.114;2024-03-02T02:35:37;59860.63;;;-146.26;100.00
63190;BME280;49286;44.460;26.114;2024-03-02T02:38:03;59860.63;;;-146.26;100.00
63190;BME280;49286;44.460;26.114;2024-03-02T02:40:28;59860.63;;;-146.26;100.00
63190;BME280;49286;44.460;26.114;2024-03-02T02:42:57;59860.63;;;-146.26;100.00
63190;BME280;49286;44.460;26.114;2024-03-02T02:45:24;59860.63;;;-146.26;100.00
63190;BME280;49286;44.460;26.114;2024-03-02T02:47:50;59860.63;;;-146.26;100.00
63190;BME280;49286;44.460;26.114;2024-03-02T02:50:15;59860.63;;;-146.26;100.00
63190;BME280;49286;44.460;26.114;2024-03-02T02:52:42;59860.63;;;-146.26;100.00
63190;BME280;49286;44.460;26.114;2024-03-02T02:55:12;59860.63;;;-146.26;100.00
63190;BME280;49286;44.460;26.114;2024-03-02T02:57:41;59860.63;;;-146.26;100.00
63190;BME280;49286;44.460;26.114;2024-03-02T03:00:08;59860.63;;;-146.26;100.00
63190;BME280;49286;44.460;26.114;2024-03-02T03:02:37;59860.63;;;-146.26;100.00
63190;BME280;49286;44.460;26.114;2024-03-02T03:05:03;59860.63;;;-146.26;100.00
63190;BME280;49286;44.460;26.114;2024-03-02T03:07:29;59860.63;;;-146.26;100.00
63190;BME280;49286;44.460;26.114;2024-03-02T03:09:54;59860.63;;;-146.26;100.00
63190;BME280;49286;44.460;26.114;2024-03-02T03:12:20;59860.63;;;-146.26;100.00
63190;BME280;49286;44.460;26.114;2024-03-02T03:14:46;59860.63;;;-146.26;100.00
63190;BME280;49286;44.460;26.114;2024-03-02T03:17:11;59860.63;;;-146.26;100.00
63190;BME280;49286;44.460;26.114;2024-03-02T03:19:38;59860.63;;;-146.26;100.00
63190;BME280;49286;44.460;26.114;2024-03-02T03:22:04;59860.63;;;-146.26;100.00
63190;BME280;49286;44.460;26.114;2024-03-02T03:24:29;59860.63;;;-146.26;100.00
63190;BME280;49286;44.460;26.114;2024-03-02T03:26:55;59860.63;;;-146.26;100.00
63190;BME280;49286;44.460;26.114;2024-03-02T03:29:20;59860.63;;;-146.26;100.00
63190;BME280;49286;44.460;26.114;2024-03-02T03:31:46;59860.63;;;-146.26;100.00
63190;BME280;49286;44.460;26.114;2024-03-02T03:34:12;59860.63;;;-146.26;100.00
63190;BME280;49286;44.460;26.114;2024-03-02T03:36:41;59860.63;;;-146.26;100.00
63190;BME280;49286;44.460;26.114;2024-03-02T03:39:07;59860.63;;;-146.26;100.00
63190;BME280;49286;44.460;26.114;2024-03-02T03:41:32;59860.63;;;-146.26;100.00
63190;BME280;49286;44.460;26.114;2024-03-02T03:43:58;59860.63;;;-146.26;100.00
63190;BME280;49286;44.460;26.114;2024-03-02T03:46:24;59860.63;;;-146.26;100.00
63190;BME280;49286;44.460;26.114;2024-03-02T03:48:49;59860.63;;;-146.26;100.00
63190;BME280;49286;44.460;26.114;2024-03-02T03:51:15;59860.63;;;-146.26;100.00
63190;BME280;49286;44.460;26.114;2024-03-02T03:53:40;59860.63;;;-146.26;100.00
63190;BME280;49286;44.460;26.114;2024-03-02T03:56:06;59860.63;;;-146.26;100.00
63190;BME280;49286;44.460;26.114;2024-03-02T03:58:32;59860.63;;;-146.26;100.00
63190;BME280;49286;44.460;26.114;2024-03-02T04:00:57;59860.63;;;-146.26;100.00
63190;BME280;49286;44.460;26.114;2024-03-02T04:03:23;59860.63;;;-146.26;100.00
63190;BME280;49286;44.460;26.114;2024-03-02T04:05:48;59860.63;;;-146.26;100.00
63190;BME280;49286;44.460;26.114;2024-03-02T04:08:14;59860.63;;;-146.26;100.00
63190;BME280;49286;44.460;26.114;2024-03-02T04:10:39;59860.63;;;-146.26;100.00
63190;BME280;49286;44.460;26.114;2024-03-02T04:13:07;59860.63;;;-146.26;100.00
63190;BME280;49286;44.460;26.114;2024-03-02T04:15:33;59860.63;;;-146.26;100.00
63190;BME280;49286;44.460;26.114;2024-03-02T04:17:58;59860.63;;;-146.26;100.00
63190;BME280;49286;44.460;26.114;2024-03-02T04:20:24;59860.63;;;-146.26;100.00
63190;BME280;49286;44.460;26.114;2024-03-02T04:22:50;59860.63;;;-146.26;100.00
63190;BME280;49286;44.460;26.114;2024-03-02T04:25:16;59860.63;;;-146.26;100.00
63190;BME280;49286;44.460;26.114;2024-03-02T04:27:41;59860.63;;;-146.26;100.00
63190;BME280;49286;44.460;26.114;2024-03-02T04:30:07;59860.63;;;-146.26;100.00
63190;BME280;49286;44.460;26.114;2024-03-02T04:32:34;59860.63;;;-146.26;100.00
63190;BME280;49286;44.460;26.114;2024-03-02T04:35:01;59860.63;;;-146.26;100.00
63190;BME280;49286;44.460;26.114;2024-03-02T04:37:26;59860.63;;;-146.26;100.00
63190;BME280;49286;44.460;26.114;2024-03-02T04:39:52;59860.63;;;-146.26;100.00
63190;BME280;49286;44.460;26.114;2024-03-02T04:42:17;59860.63;;;-146.26;100.00
63190;BME280;49286;44.460;26.114;2024-03-02T04:44:43;59860.63;;;-146.26;100.00
63190;BME280;49286;44.460;26.114;2024-03-02T04:47:09;59860.63;;;-146.26;100.00
63190;BME280;49286;44.460;26.114;2024-03-02T04:49:34;59860.63;;;-146.26;100.00
63190;BME280;49286;44.460;26.114;2024-03-02T04:52:00;59860.63;;;-146.26;100.00
63190;BME280;49286;44.460;26.114;2024-03-02T04:54:25;59860.63;;;-146.26;100.00
63190;BME280;49286;44.460;26.114;2024-03-02T04:56:51;59860.63;;;-146.26;100.00
63190;BME280;49286;44.460;26.114;2024-03-02T04:59:17;59860.63;;;-146.26;100.00
63190;BME280;49286;44.460;26.114;2024-03-02T05:01:43;59860.63;;;-146.26;100.00
63190;BME280;49286;44.460;26.114;2024-03-02T05:04:09;59860.63;;;-146.26;100.00
63190;BME280;49286;44.460;26.114;2024-03-02T05:06:40;59860.63;;;-146.26;100.00
63190;BME280;49286;44.460;26.114;2024-03-02T05:09:07;59860.63;;;-146.26;100.00
63190;BME280;49286;44.460;26.114;2024-03-02T05:11:33;59860.63;;;-146.26;100.00
63190;BME280;49286;44.460;26.114;2024-03-02T05:14:07;59860.63;;;-146.26;100.00
63190;BME280;49286;44.460;26.114;2024-03-02T05:16:36;59860.63;;;-146.26;100.00
63190;BME280;49286;44.460;26.114;2024-03-02T05:19:05;59860.63;;;-146.26;100.00
63190;BME280;49286;44.460;26.114;2024-03-02T05:21:34;59860.63;;;-146.26;100.00
63190;BME280;49286;44.460;26.114;2024-03-02T05:24:00;59860.63;;;-146.26;100.00
63190;BME280;49286;44.460;26.114;2024-03-02T05:26:25;59860.63;;;-146.26;100.00
63190;BME280;49286;44.460;26.114;2024-03-02T05:28:51;59860.63;;;-146.26;100.00
63190;BME280;49286;44.460;26.114;2024-03-02T05:31:17;59860.63;;;-146.26;100.00
63190;BME280;49286;44.460;26.114;2024-03-02T05:33:43;59860.63;;;-146.26;100.00
63190;BME280;49286;44.460;26.114;2024-03-02T05:36:09;59860.63;;;-146.26;100.00
63190;BME280;49286;44.460;26.114;2024-03-02T05:38:35;59860.63;;;-146.26;100.00
63190;BME280;49286;44.460;26.114;2024-03-02T05:41:01;59860.63;;;-146.26;100.00
63190;BME280;49286;44.460;26.114;2024-03-02T05:43:27;59860.63;;;-146.26;100.00
63190;BME280;49286;44.460;26.114;2024-03-02T05:45:52;59860.63;;;-146.26;100.00
63190;BME280;49286;44.460;26.114;2024-03-02T05:48:19;59860.63;;;-146.26;100.00
63190;BME280;49286;44.460;26.114;2024-03-02T05:50:44;59860.63;;;-146.26;100.00
63190;BME280;49286;44.460;26.114;2024-03-02T05:53:10;59860.63;;;-146.26;100.00
63190;BME280;49286;44.460;26.114;2024-03-02T05:55:35;59860.63;;;-146.26;100.00
63190;BME280;49286;44.460;26.114;2024-03-02T05:58:01;59860.63;;;-146.26;100.00
63190;BME280;49286;44.460;26.114;2024-03-02T06:00:45;59860.63;;;-146.26;100.00
63190;BME280;49286;44.460;26.114;2024-03-02T06:03:11;59860.63;;;-146.26;100.00
63190;BME280;49286;44.460;26.114;2024-03-02T06:05:37;59860.63;;;-146.26;100.00
63190;BME280;49286;44.460;26.114;2024-03-02T06:08:03;59860.63;;;-146.26;100.00
63190;BME280;49286;44.460;26.114;2024-03-02T06:10:29;59860.63;;;-146.26;100.00
63190;BME280;49286;44.460;26.114;2024-03-02T06:12:54;59860.63;;;-146.26;100.00
63190;BME280;49286;44.460;26.114;2024-03-02T06:15:20;59860.63;;;-146.26;100.00
63190;BME280;49286;44.460;26.114;2024-03-02T06:17:45;59860.63;;;-146.26;100.00
63190;BME280;49286;44.460;26.114;2024-03-02T06:20:11;59860.63;;;-146.26;100.00
63190;BME280;49286;44.460;26.114;2024-03-02T06:22:37;59860.63;;;-146.26;100.00
63190;BME280;49286;44.460;26.114;2024-03-02T06:25:02;59860.63;;;-146.26;100.00
63190;BME280;49286;44.460;26.114;2024-03-02T06:27:28;59860.63;;;-146.26;100.00
63190;BME280;49286;44.460;26.114;2024-03-02T06:29:54;59860.63;;;-146.26;100.00
63190;BME280;49286;44.460;26.114;2024-03-02T06:32:20;59860.63;;;-146.26;100.00
63190;BME280;49286;44.460;26.114;2024-03-02T06:34:45;59860.63;;;-146.26;100.00
63190;BME280;49286;44.460;26.114;2024-03-02T06:37:11;59860.63;;;-146.26;100.00
63190;BME280;49286;44.460;26.114;2024-03-02T06:39:36;59860.63;;;-146.26;100.00
63190;BME280;49286;44.460;26.114;2024-03-02T06:42:02;59860.63;;;-146.26;100.00
63190;BME280;49286;44.460;26.114;2024-03-02T06:44:28;59860.63;;;-146.26;100.00
63190;BME280;49286;44.460;26.114;2024-03-02T06:46:53;59860.63;;;-146.26;100.00
63190;BME280;49286;44.460;26.114;2024-03-02T06:49:19;59860.63;;;-146.26;100.00
63190;BME280;49286;44.460;26.114;2024-03-02T06:51:45;59860.63;;;-146.26;100.00
63190;BME280;49286;44.460;26.114;2024-03-02T06:54:10;59860.63;;;-146.26;100.00
63190;BME280;49286;44.460;26.114;2024-03-02T06:56:36;59860.63;;;-146.26;100.00
63190;BME280;49286;44.460;26.114;2024-03-02T06:59:02;59860.63;;;-146.26;100.00
63190;BME280;49286;44.460;26.114;2024-03-02T07:01:28;59860.63;;;-146.26;100.00
63190;BME280;49286;44.460;26.114;2024-03-02T07:03:53;59860.63;;;-146.26;100.00
63190;BME280;49286;44.460;26.114;2024-03-02T07:06:19;59860.63;;;-146.26;100.00
63190;BME280;49286;44.460;26.114;2024-03-02T07:08:45;59860.63;;;-146.26;100.00
63190;BME280;49286;44.460;26.114;2024-03-02T07:11:10;59860.63;;;-146.26;100.00
63190;BME280;49286;44.460;26.114;2024-03-02T07:13:36;59860.63;;;-146.26;100.00
63190;BME280;49286;44.460;26.114;2024-03-02T07:16:01;59860.63;;;-146.26;100.00
63190;BME280;49286;44.460;26.114;2024-03-02T07:18:46;59860.63;;;-146.26;100.00
63190;BME280;49286;44.460;26.114;2024-03-02T07:21:17;59860.63;;;-146.26;100.00
63190;BME280;49286;44.460;26.114;2024-03-02T07:23:44;59860.63;;;-146.26;100.00
63190;BME280;49286;44.460;26.114;2024-03-02T07:26:09;59860.63;;;-146.26;100.00
63190;BME280;49286;44.460;26.114;2024-03-02T07:28:35;59860.63;;;-146.26;100.00
63190;BME280;49286;44.460;26.114;2024-03-02T07:31:03;59860.63;;;-146.26;100.00
63190;BME280;49286;44.460;26.114;2024-03-02T07:33:33;59860.63;;;-146.26;100.00
63190;BME280;49286;44.460;26.114;2024-03-02T07:35:59;59860.63;;;-146.26;100.00
63190;BME280;49286;44.460;26.114;2024-03-02T07:38:26;59860.63;;;-146.26;100.00
63190;BME280;49286;44.460;26.114;2024-03-02T07:40:52;59860.63;;;-146.26;100.00
63190;BME280;49286;44.460;26.114;2024-03-02T07:43:21;59860.63;;;-146.26;100.00
63190;BME280;49286;44.460;26.114;2024-03-02T07:45:47;59860.63;;;-146.26;100.00
63190;BME280;49286;44.460;26.114;2024-03-02T07:48:14;59860.63;;;-146.26;100.00
63190;BME280;49286;44.460;26.114;2024-03-02T07:50:40;59860.63;;;-146.26;100.00
63190;BME280;49286;44.460;26.114;2024-03-02T07:53:06;59860.63;;;-146.26;100.00
63190;BME280;49286;44.460;26.114;2024-03-02T07:55:33;59860.63;;;-146.26;100.00
63190;BME280;49286;44.460;26.114;2024-03-02T07:58:00;59860.63;;;-146.26;100.00
63190;BME280;49286;44.460;26.114;2024-03-02T08:00:26;59860.63;;;-146.26;100.00
63190;BME280;49286;44.460;26.114;2024-03-02T08:02:53;59860.63;;;-146.26;100.00
63190;BME280;49286;44.460;26.114;2024-03-02T08:05:19;59860.63;;;-146.26;100.00
63190;BME280;49286;44.460;26.114;2024-03-02T08:07:45;59860.63;;;-146.26;100.00
63190;BME280;49286;44.460;26.114;2024-03-02T08:10:11;59860.63;;;-146.26;100.00
63190;BME280;49286;44.460;26.114;2024-03-02T08:12:37;59860.63;;;-146.26;100.00
63190;BME280;49286;44.460;26.114;2024-03-02T08:15:04;59860.63;;;-146.26;100.00
63190;BME280;49286;44.460;26.114;2024-03-02T08:17:30;59860.63;;;-146.26;100.00
63190;BME280;49286;44.460;26.114;2024-03-02T08:19:56;59860.63;;;-146.26;100.00
63190;BME280;49286;44.460;26.114;2024-03-02T08:22:22;59860.63;;;-146.26;100.00
63190;BME280;49286;44.460;26.114;2024-03-02T08:24:48;59860.63;;;-146.26;100.00
63190;BME280;49286;44.460;26.114;2024-03-02T08:27:14;59860.63;;;-146.26;100.00
63190;BME280;49286;44.460;26.114;2024-03-02T08:29:40;59860.63;;;-146.26;100.00
63190;BME280;49286;44.460;26.114;2024-03-02T08:32:07;59860.63;;;-146.26;100.00
63190;BME280;49286;44.460;26.114;2024-03-02T08:34:32;59860.63;;;-146.26;100.00
63190;BME280;49286;44.460;26.114;2024-03-02T08:37:01;59860.63;;;-146.26;100.00
63190;BME280;49286;44.460;26.114;2024-03-02T08:39:26;59860.63;;;-146.26;100.00
63190;BME280;49286;44.460;26.114;2024-03-02T08:41:52;59860.63;;;-146.26;100.00
63190;BME280;49286;44.460;26.114;2024-03-02T08:44:18;59860.63;;;-146.26;100.00
63190;BME280;49286;44.460;26.114;2024-03-02T08:46:44;59860.63;;;-146.26;100.00
63190;BME280;49286;44.460;26.114;2024-03-02T08:49:10;59860.63;;;-146.26;100.00
63190;BME280;49286;44.460;26.114;2024-03-02T08:51:36;59860.63;;;-146.26;100.00
63190;BME280;49286;44.460;26.114;2024-03-02T08:54:01;59860.63;;;-146.26;100.00
63190;BME280;49286;44.460;26.114;2024-03-02T08:56:27;59860.63;;;-146.26;100.00
63190;BME280;49286;44.460;26.114;2024-03-02T08:58:52;59860.63;;;-146.26;100.00
63190;BME280;49286;44.460;26.114;2024-03-02T09:01:18;59860.63;;;-146.26;100.00
63190;BME280;49286;44.460;26.114;2024-03-02T09:03:47;59860.63;;;-146.26;100.00
63190;BME280;49286;44.460;26.114;2024-03-02T09:06:14;59860.63;;;-146.26;100.00
63190;BME280;49286;44.460;26.114;2024-03-02T09:08:42;59860.63;;;-146.26;100.00
63190;BME280;49286;44.460;26.114;2024-03-02T09:11:08;59860.63;;;-146.26;100.00
63190;BME280;49286;44.460;26.114;2024-03-02T09:13:35;59860.63;;;-146.26;100.00
63190;BME280;49286;44.460;26.114;2024-03-02T09:16:01;59860.63;;;-146.26;100.00
63190;BME280;49286;44.460;26.114;2024-03-02T09:18:28;59860.63;;;-146.26;100.00
63190;BME280;49286;44.460;26.114;2024-03-02T09:20:53;59860.63;;;-146.26;100.00
63190;BME280;49286;44.460;26.114;2024-03-02T09:23:19;59860.63;;;-146.26;100.00
63190;BME280;49286;44.460;26.114;2024-03-02T09:25:44;59860.63;;;-146.26;100.00
63190;BME280;49286;44.460;26.114;2024-03-02T09:28:10;59860.63;;;-146.26;100.00
63190;BME280;49286;44.460;26.114;2024-03-02T09:30:36;59860.63;;;-146.26;100.00
63190;BME280;49286;44.460;26.114;2024-03-02T09:33:03;59860.63;;;-146.26;100.00
63190;BME280;49286;44.460;26.114;2024-03-02T09:35:29;59860.63;;;-146.26;100.00
63190;BME280;49286;44.460;26.114;2024-03-02T09:37:55;59860.63;;;-146.26;100.00
63190;BME280;49286;44.460;26.114;2024-03-02T09:40:22;59860.63;;;-146.26;100.00
63190;BME280;49286;44.460;26.114;2024-03-02T09:42:47;59860.63;;;-146.26;100.00
63190;BME280;49286;44.460;26.114;2024-03-02T09:45:23;59860.63;;;-146.26;100.00
63190;BME280;49286;44.460;26.114;2024-03-02T09:47:49;59860.63;;;-146.26;100.00
63190;BME280;49286;44.460;26.114;2024-03-02T09:50:14;59860.63;;;-146.26;100.00
63190;BME280;49286;44.460;26.114;2024-03-02T09:53:02;100366.16;;;9.62;100.00
63190;BME280;49286;44.460;26.114;2024-03-02T09:55:27;100391.66;;;10.30;100.00
63190;BME280;49286;44.460;26.114;2024-03-02T09:57:53;100264.00;;;10.11;100.00
63190;BME280;49286;44.460;26.114;2024-03-02T10:00:19;100331.31;;;10.58;100.00
63190;BME280;49286;44.460;26.114;2024-03-02T10:02:44;100361.88;;;10.94;100.00
63190;BME280;49286;44.460;26.114;2024-03-02T10:05:23;100292.00;;;9.95;100.00
63190;BME280;49286;44.460;26.114;2024-03-02T10:08:02;100346.97;;;10.99;100.00
63190;BME280;49286;44.460;26.114;2024-03-02T10:10:40;100355.66;;;11.20;100.00
63190;BME280;49286;44.460;26.114;2024-03-02T10:13:11;100342.53;;;11.20;100.00
63190;BME280;49286;44.460;26.114;2024-03-02T10:15:38;100328.56;;;11.04;100.00
63190;BME280;49286;44.460;26.114;2024-03-02T10:18:11;100354.06;;;10.51;100.00
63190;BME280;49286;44.460;26.114;2024-03-02T10:20:38;100316.44;;;10.57;100.00
63190;BME280;49286;44.460;26.114;2024-03-02T10:23:11;100318.16;;;10.76;100.00
63190;BME280;49286;44.460;26.114;2024-03-02T10:25:37;100332.19;;;10.12;100.00
63190;BME280;49286;44.460;26.114;2024-03-02T10:28:03;100312.94;;;10.18;100.00
63190;BME280;49286;44.460;26.114;2024-03-02T10:30:31;100326.88;;;10.86;100.00
63190;BME280;49286;44.460;26.114;2024-03-02T10:32:57;100329.41;;;11.14;100.00
63190;BME280;49286;44.460;26.114;2024-03-02T10:35:23;100245.56;;;10.82;100.00
63190;BME280;49286;44.460;26.114;2024-03-02T10:37:52;100304.94;;;11.09;100.00
63190;BME280;49286;44.460;26.114;2024-03-02T10:40:21;100228.00;;;10.91;100.00
63190;BME280;49286;44.460;26.114;2024-03-02T10:42:46;100322.28;;;11.45;100.00
63190;BME280;49286;44.460;26.114;2024-03-02T10:45:15;100314.38;;;11.47;100.00
63190;BME280;49286;44.460;26.114;2024-03-02T10:47:42;100299.56;;;11.35;100.00
63190;BME280;49286;44.460;26.114;2024-03-02T10:50:08;100317.97;;;11.33;100.00
63190;BME280;49286;44.460;26.114;2024-03-02T10:52:37;100325.63;;;11.73;100.00
63190;BME280;49286;44.460;26.114;2024-03-02T10:55:05;100321.16;;;11.89;100.00
63190;BME280;49286;44.460;26.114;2024-03-02T10:57:52;100189.25;;;11.30;100.00
63190;BME280;49286;44.460;26.114;2024-03-02T11:00:24;100307.03;;;12.07;100.00
63190;BME280;49286;44.460;26.114;2024-03-02T11:03:05;100320.97;;;12.17;100.00
63190;BME280;49286;44.460;26.114;2024-03-02T11:05:39;100236.28;;;11.73;100.00
63190;BME280;49286;44.460;26.114;2024-03-02T11:08:14;100313.75;;;12.43;100.00
63190;BME280;49286;44.460;26.114;2024-03-02T11:10:52;100325.94;;;12.51;100.00
63190;BME280;49286;44.460;26.114;2024-03-02T11:13:31;100312.81;;;12.48;100.00
63190;BME280;49286;44.460;26.114;2024-03-02T11:16:05;100322.34;;;12.61;100.00
63190;BME280;49286;44.460;26.114;2024-03-02T11:18:32;100335.09;;;12.08;100.00
63190;BME280;49286;44.460;26.114;2024-03-02T11:20:59;100260.03;;;11.53;100.00
63190;BME280;49286;44.460;26.114;2024-03-02T11:23:35;100335.16;;;11.99;100.00
63190;BME280;49286;44.460;26.114;2024-03-02T11:28:44;100286.97;;;11.89;100.00
63190;BME280;49286;44.460;26.114;2024-03-02T11:31:11;100310.44;;;12.17;100.00
63190;BME280;49286;44.460;26.114;2024-03-02T11:33:36;100324.34;;;12.34;100.00
63190;BME280;49286;44.460;26.114;2024-03-02T11:36:02;100323.44;;;12.34;100.00
63190;BME280;49286;44.460;26.114;2024-03-02T11:38:30;100323.66;;;12.11;100.00
63190;BME280;49286;44.460;26.114;2024-03-02T11:40:57;100323.56;;;12.21;100.00
63190;BME280;49286;44.460;26.114;2024-03-02T11:43:22;100284.25;;;12.04;100.00
63190;BME280;49286;44.460;26.114;2024-03-02T11:45:56;100337.19;;;12.66;100.00
63190;BME280;49286;44.460;26.114;2024-03-02T11:48:25;100239.47;;;12.14;100.00
63190;BME280;49286;44.460;26.114;2024-03-02T11:50:50;100333.69;;;12.69;100.00
63190;BME280;49286;44.460;26.114;2024-03-02T11:53:17;100257.75;;;12.26;100.00
63190;BME280;49286;44.460;26.114;2024-03-02T11:55:44;100304.00;;;12.52;100.00
63190;BME280;49286;44.460;26.114;2024-03-02T11:58:12;100267.38;;;12.29;100.00
63190;BME280;49286;44.460;26.114;2024-03-02T12:00:37;100322.97;;;12.84;100.00
63190;BME280;49286;44.460;26.114;2024-03-02T12:03:08;100261.56;;;11.87;100.00
63190;BME280;49286;44.460;26.114;2024-03-02T12:05:35;100318.13;;;12.41;100.00
63190;BME280;49286;44.460;26.114;2024-03-02T12:08:02;100330.31;;;12.52;100.00
63190;BME280;49286;44.460;26.114;2024-03-02T12:10:31;100244.09;;;11.81;100.00
63190;BME280;49286;44.460;26.114;2024-03-02T12:12:58;100227.91;;;11.14;100.00
63190;BME280;49286;44.460;26.114;2024-03-02T12:15:29;100301.38;;;11.22;100.00
63190;BME280;49286;44.460;26.114;2024-03-02T12:17:56;100227.75;;;11.40;100.00
63190;BME280;49286;44.460;26.114;2024-03-02T12:20:23;100304.41;;;12.02;100.00
63190;BME280;49286;44.460;26.114;2024-03-02T12:22:51;100302.31;;;12.46;100.00
63190;BME280;49286;44.460;26.114;2024-03-02T12:25:21;100312.88;;;12.38;100.00
63190;BME280;49286;44.460;26.114;2024-03-02T12:27:49;100319.59;;;12.72;100.00
63190;BME280;49286;44.460;26.114;2024-03-02T12:30:19;100317.88;;;12.67;100.00
63190;BME280;49286;44.460;26.114;2024-03-02T12:32:45;100315.81;;;12.06;100.00